createdAt,value
2024-02-19T00:01:34.873Z,71.10
2024-02-19T00:04:01.710Z,71.10
2024-02-19T00:06:28.533Z,71.10
2024-02-19T00:08:55.246Z,71.20
2024-02-19T00:11:22.088Z,71.10
2024-02-19T00:13:48.918Z,71.10
2024-02-19T00:16:15.740Z,71.20
2024-02-19T00:18:42.955Z,71.10
2024-02-19T00:21:09.789Z,71.20
2024-02-19T00:23:36.988Z,71.20
2024-02-19T00:26:04.785Z,71.20
2024-02-19T00:28:31.520Z,71.20
2024-02-19T00:30:58.327Z,71.20
2024-02-19T00:33:25.954Z,71.20
2024-02-19T00:35:53.002Z,71.20
2024-02-19T00:38:19.732Z,71.20
2024-02-19T00:40:46.996Z,71.20
2024-02-19T00:43:13.941Z,71.20
2024-02-19T00:45:40.833Z,71.10
2024-02-19T00:48:07.785Z,71.10
2024-02-19T00:50:34.523Z,71.20
2024-02-19T00:53:01.264Z,71.20
2024-02-19T00:55:28.054Z,71.20
2024-02-19T00:57:54.781Z,71.20
2024-02-19T01:00:21.553Z,71.20
2024-02-19T01:02:48.273Z,71.20
2024-02-19T01:05:15.013Z,71.20
2024-02-19T01:07:41.842Z,71.20
2024-02-19T01:10:09.111Z,71.20
2024-02-19T01:12:36.036Z,71.20
2024-02-19T01:15:02.937Z,71.20
2024-02-19T01:17:30.235Z,71.80
2024-02-19T01:19:58.330Z,71.20
2024-02-19T01:22:25.827Z,71.20
2024-02-19T01:24:52.699Z,71.20
2024-02-19T01:27:19.851Z,71.20
2024-02-19T01:29:47.531Z,71.20
2024-02-19T01:32:14.558Z,71.20
2024-02-19T01:34:41.577Z,71.20
2024-02-19T01:37:08.516Z,71.20
2024-02-19T01:39:35.438Z,71.20
2024-02-19T01:42:02.360Z,71.20
2024-02-19T01:44:29.071Z,71.10
2024-02-19T01:46:56.757Z,71.20
2024-02-19T01:49:23.916Z,71.20
2024-02-19T01:51:52.105Z,71.20
2024-02-19T01:54:19.753Z,71.10
2024-02-19T01:56:47.271Z,71.10
2024-02-19T01:59:17.103Z,71.10
2024-02-19T02:01:44.136Z,71.20
2024-02-19T02:04:12.759Z,71.20
2024-02-19T02:06:39.806Z,71.20
2024-02-19T02:09:08.386Z,71.20
2024-02-19T02:11:35.463Z,71.20
2024-02-19T02:14:02.303Z,71.20
2024-02-19T02:16:30.172Z,71.10
2024-02-19T02:18:57.716Z,71.10
2024-02-19T02:21:25.168Z,71.20
2024-02-19T02:23:52.122Z,71.10
2024-02-19T02:26:18.878Z,71.20
2024-02-19T02:28:45.639Z,71.10
2024-02-19T02:31:12.590Z,71.10
2024-02-19T02:33:39.980Z,71.10
2024-02-19T02:36:10.520Z,71.10
2024-02-19T02:38:37.458Z,71.10
2024-02-19T02:41:04.363Z,71.20
2024-02-19T02:43:31.097Z,71.20
2024-02-19T02:45:57.853Z,71.20
2024-02-19T02:48:24.867Z,71.10
2024-02-19T02:50:51.735Z,71.10
2024-02-19T02:53:18.591Z,71.10
2024-02-19T02:55:46.302Z,71.20
2024-02-19T02:58:13.218Z,71.20
2024-02-19T03:00:40.171Z,71.10
2024-02-19T03:03:07.026Z,71.20
2024-02-19T03:05:33.902Z,71.10
2024-02-19T03:08:00.769Z,71.20
2024-02-19T03:10:27.708Z,71.10
2024-02-19T03:12:54.589Z,71.10
2024-02-19T03:15:21.391Z,71.10
2024-02-19T03:17:48.329Z,71.10
2024-02-19T03:20:19.733Z,71.10
2024-02-19T03:22:46.749Z,71.10
2024-02-19T03:25:13.622Z,71.10
2024-02-19T03:27:41.365Z,71.20
2024-02-19T03:30:08.633Z,71.10
2024-02-19T03:32:35.418Z,71.20
2024-02-19T03:35:02.282Z,71.20
2024-02-19T03:37:29.058Z,71.20
2024-02-19T03:39:55.925Z,71.20
2024-02-19T03:42:22.693Z,71.10
2024-02-19T03:44:49.458Z,71.20
2024-02-19T03:47:16.213Z,71.10
2024-02-19T03:49:43.213Z,71.10
2024-02-19T03:52:10.262Z,71.20
2024-02-19T03:54:37.118Z,71.10
2024-02-19T03:57:05.253Z,71.10
2024-02-19T03:59:33.020Z,71.20
2024-02-19T04:02:01.012Z,71.20
2024-02-19T04:04:27.993Z,71.20
2024-02-19T04:06:55.206Z,71.20
2024-02-19T04:09:22.506Z,71.20
2024-02-19T04:11:49.379Z,71.20
2024-02-19T04:14:16.176Z,71.20
2024-02-19T04:19:10.662Z,71.30
2024-02-19T04:21:45.069Z,71.30
2024-02-19T04:24:13.403Z,71.30
2024-02-19T04:26:40.340Z,71.30
2024-02-19T04:29:07.234Z,71.40
2024-02-19T04:31:33.951Z,71.30
2024-02-19T04:34:00.818Z,71.40
2024-02-19T04:36:27.611Z,71.30
2024-02-19T04:38:54.372Z,71.30
2024-02-19T04:41:21.134Z,71.40
2024-02-19T04:43:47.853Z,71.40
2024-02-19T04:46:14.651Z,71.40
2024-02-19T04:48:41.592Z,71.40
2024-02-19T04:51:08.405Z,71.40
2024-02-19T04:53:35.371Z,71.30
2024-02-19T04:56:02.466Z,71.40
2024-02-19T04:58:29.312Z,71.30
2024-02-19T05:00:56.329Z,71.40
2024-02-19T05:03:23.135Z,71.40
2024-02-19T05:05:49.991Z,71.40
2024-02-19T05:08:16.753Z,71.40
2024-02-19T05:10:43.541Z,71.40
2024-02-19T05:13:10.434Z,71.40
2024-02-19T05:15:37.322Z,71.40
2024-02-19T05:18:04.687Z,71.40
2024-02-19T05:20:31.501Z,71.40
2024-02-19T05:22:58.254Z,71.40
2024-02-19T05:25:25.206Z,71.40
2024-02-19T05:27:53.631Z,71.40
2024-02-19T05:30:23.201Z,71.40
2024-02-19T05:32:49.966Z,71.40
2024-02-19T05:35:16.748Z,71.40
2024-02-19T05:37:43.630Z,71.40
2024-02-19T05:40:12.059Z,71.50
2024-02-19T05:42:38.946Z,71.40
2024-02-19T05:45:06.404Z,71.40
2024-02-19T05:47:33.175Z,71.40
2024-02-19T05:50:00.074Z,71.40
2024-02-19T05:52:26.890Z,71.40
2024-02-19T05:54:53.756Z,71.40
2024-02-19T05:57:20.487Z,71.40
2024-02-19T05:59:47.205Z,71.40
2024-02-19T06:02:14.043Z,71.40
2024-02-19T06:04:41.140Z,71.40
2024-02-19T06:07:08.213Z,71.50
2024-02-19T06:09:34.964Z,71.40
2024-02-19T06:12:01.656Z,71.40
2024-02-19T06:14:28.377Z,71.40
2024-02-19T06:16:55.151Z,71.40
2024-02-19T06:19:21.934Z,71.40
2024-02-19T06:21:48.783Z,71.50
2024-02-19T06:24:15.570Z,71.50
2024-02-19T06:26:42.289Z,71.40
2024-02-19T06:29:12.147Z,71.50
2024-02-19T06:31:39.060Z,71.50
2024-02-19T06:34:06.260Z,71.50
2024-02-19T06:36:33.353Z,71.50
2024-02-19T06:39:00.056Z,71.50
2024-02-19T06:41:29.460Z,71.50
2024-02-19T06:43:57.730Z,71.50
2024-02-19T06:46:24.590Z,71.50
2024-02-19T06:48:51.503Z,71.50
2024-02-19T06:51:19.074Z,71.50
2024-02-19T06:53:45.831Z,71.60
2024-02-19T06:56:13.538Z,71.60
2024-02-19T06:58:40.302Z,71.50
2024-02-19T07:01:07.101Z,71.60
2024-02-19T07:03:34.399Z,71.60
2024-02-19T07:06:01.202Z,71.60
2024-02-19T07:08:27.997Z,71.60
2024-02-19T07:10:54.791Z,71.60
2024-02-19T07:13:21.673Z,71.60
2024-02-19T07:15:48.581Z,71.60
2024-02-19T07:18:15.402Z,71.60
2024-02-19T07:20:42.310Z,71.60
2024-02-19T07:23:09.104Z,71.60
2024-02-19T07:25:36.358Z,71.60
2024-02-19T07:28:03.280Z,71.70
2024-02-19T07:30:30.012Z,71.60
2024-02-19T07:32:57.001Z,71.60
2024-02-19T07:35:23.746Z,71.60
2024-02-19T07:37:50.698Z,71.70
2024-02-19T07:40:17.473Z,71.70
2024-02-19T07:42:44.310Z,71.70
2024-02-19T07:45:11.053Z,71.70
2024-02-19T07:47:38.177Z,71.70
2024-02-19T07:50:05.276Z,71.70
2024-02-19T07:52:32.089Z,71.70
2024-02-19T07:54:58.844Z,71.70
2024-02-19T07:57:25.589Z,71.70
2024-02-19T07:59:53.070Z,71.70
2024-02-19T08:02:19.933Z,71.70
2024-02-19T08:04:46.811Z,71.70
2024-02-19T08:07:13.797Z,71.70
2024-02-19T08:09:40.578Z,71.70
2024-02-19T08:12:07.664Z,71.70
2024-02-19T08:14:34.445Z,71.80
2024-02-19T08:17:01.198Z,71.70
2024-02-19T08:19:28.170Z,71.70
2024-02-19T08:21:57.765Z,71.70
2024-02-19T08:24:24.783Z,71.80
2024-02-19T08:26:51.598Z,71.80
2024-02-19T08:29:18.301Z,71.80
2024-02-19T08:31:45.051Z,71.70
2024-02-19T08:34:13.403Z,71.70
2024-02-19T08:36:41.339Z,71.70
2024-02-19T08:39:08.256Z,71.70
2024-02-19T08:41:35.082Z,71.80
2024-02-19T08:44:01.820Z,71.80
2024-02-19T08:46:28.621Z,71.70
2024-02-19T08:48:56.623Z,71.80
2024-02-19T08:51:25.037Z,71.80
2024-02-19T08:53:56.828Z,71.80
2024-02-19T08:56:26.609Z,71.70
2024-02-19T08:58:53.379Z,71.70
2024-02-19T09:01:20.552Z,71.80
2024-02-19T09:03:48.496Z,71.80
2024-02-19T09:06:15.826Z,71.80
2024-02-19T09:08:42.866Z,71.80
2024-02-19T09:11:09.879Z,71.80
2024-02-19T09:13:37.214Z,71.80
2024-02-19T09:16:04.384Z,71.80
2024-02-19T09:18:31.418Z,71.80
2024-02-19T09:20:58.215Z,71.80
2024-02-19T09:23:26.801Z,71.80
2024-02-19T09:25:55.707Z,71.80
2024-02-19T09:28:22.557Z,71.80
2024-02-19T09:30:49.334Z,71.80
2024-02-19T09:33:16.356Z,71.70
2024-02-19T09:35:43.294Z,71.70
2024-02-19T09:38:10.587Z,71.70
2024-02-19T09:40:38.088Z,71.60
2024-02-19T09:43:07.004Z,71.70
2024-02-19T09:45:34.120Z,71.60
2024-02-19T09:48:01.978Z,71.70
2024-02-19T09:50:29.992Z,71.60
2024-02-19T09:53:09.927Z,71.60
2024-02-19T09:55:37.253Z,71.60
2024-02-19T09:58:05.426Z,71.60
2024-02-19T10:00:32.704Z,71.60
2024-02-19T10:02:59.484Z,71.60
2024-02-19T10:05:26.289Z,71.50
2024-02-19T10:08:00.519Z,71.50
2024-02-19T10:10:29.416Z,71.50
2024-02-19T10:12:56.332Z,71.60
2024-02-19T10:15:23.171Z,71.50
2024-02-19T10:17:49.997Z,71.50
2024-02-19T10:20:16.842Z,71.50
2024-02-19T10:22:43.577Z,71.50
2024-02-19T10:25:13.129Z,71.50
2024-02-19T10:27:40.073Z,71.50
2024-02-19T10:30:13.483Z,71.50
2024-02-19T10:32:42.491Z,71.50
2024-02-19T10:35:09.488Z,71.30
2024-02-19T10:37:37.243Z,71.30
2024-02-19T10:40:09.823Z,71.30
2024-02-19T10:42:37.930Z,71.20
2024-02-19T10:45:05.165Z,71.20
2024-02-19T10:47:32.039Z,71.20
2024-02-19T10:50:00.431Z,71.10
2024-02-19T10:52:28.095Z,70.90
2024-02-19T10:55:05.856Z,70.80
2024-02-19T10:57:54.089Z,70.80
2024-02-19T11:00:28.593Z,70.80
2024-02-19T11:03:09.402Z,70.80
2024-02-19T11:05:41.687Z,70.70
2024-02-19T11:08:22.461Z,70.70
2024-02-19T11:10:50.534Z,70.60
2024-02-19T11:13:23.201Z,70.50
2024-02-19T11:15:50.296Z,70.50
2024-02-19T11:18:21.184Z,70.50
2024-02-19T11:20:49.093Z,70.40
2024-02-19T11:23:17.279Z,70.30
2024-02-19T11:25:45.501Z,70.30
2024-02-19T11:28:15.269Z,70.30
2024-02-19T11:30:42.229Z,70.30
2024-02-19T11:33:12.816Z,70.40
2024-02-19T11:35:44.451Z,70.40
2024-02-19T11:38:12.475Z,70.40
2024-02-19T11:40:39.513Z,70.40
2024-02-19T11:43:06.834Z,70.40
2024-02-19T11:45:35.114Z,70.40
2024-02-19T11:48:02.094Z,70.50
2024-02-19T11:50:32.927Z,70.40
2024-02-19T11:53:00.198Z,70.40
2024-02-19T11:55:30.629Z,70.40
2024-02-19T11:58:02.575Z,70.40
2024-02-19T12:00:33.733Z,70.40
2024-02-19T12:03:01.195Z,70.40
2024-02-19T12:05:28.516Z,70.30
2024-02-19T12:07:56.343Z,70.40
2024-02-19T12:10:23.670Z,70.30
2024-02-19T12:12:51.491Z,70.20
2024-02-19T12:15:20.425Z,70.10
2024-02-19T12:17:49.652Z,70.10
2024-02-19T12:20:17.157Z,70.10
2024-02-19T12:22:44.253Z,70.00
2024-02-19T12:25:13.338Z,70.00
2024-02-19T12:27:40.512Z,70.10
2024-02-19T12:30:08.289Z,70.10
2024-02-19T12:32:35.791Z,70.00
2024-02-19T12:35:03.076Z,70.00
2024-02-19T12:37:30.757Z,69.90
2024-02-19T12:39:57.892Z,70.00
2024-02-19T12:42:24.928Z,69.90
2024-02-19T12:44:51.860Z,69.90
2024-02-19T12:47:18.729Z,69.80
2024-02-19T12:49:45.567Z,69.90
2024-02-19T12:52:13.033Z,69.90
2024-02-19T12:54:42.923Z,69.80
2024-02-19T12:57:11.046Z,69.80
2024-02-19T12:59:38.201Z,69.80
2024-02-19T13:02:06.749Z,69.80
2024-02-19T13:04:33.719Z,69.70
2024-02-19T13:07:02.039Z,69.60
2024-02-19T13:09:28.903Z,69.60
2024-02-19T13:11:57.706Z,69.60
2024-02-19T13:14:26.033Z,69.50
2024-02-19T13:17:08.440Z,69.50
2024-02-19T13:19:39.935Z,69.50
2024-02-19T13:22:07.025Z,69.60
2024-02-19T13:24:33.904Z,69.50
2024-02-19T13:27:00.754Z,69.50
2024-02-19T13:29:27.673Z,69.40
2024-02-19T13:31:54.517Z,69.40
2024-02-19T13:34:22.271Z,69.40
2024-02-19T13:36:50.399Z,69.30
2024-02-19T13:39:22.060Z,69.50
2024-02-19T13:41:49.718Z,69.30
2024-02-19T13:44:16.918Z,69.30
2024-02-19T13:46:45.744Z,69.20
2024-02-19T13:49:12.998Z,69.20
2024-02-19T13:51:39.873Z,69.20
2024-02-19T13:54:07.553Z,69.10
2024-02-19T13:56:34.545Z,69.00
2024-02-19T13:59:01.338Z,69.00
2024-02-19T14:01:32.492Z,69.00
2024-02-19T14:04:01.156Z,69.00
2024-02-19T14:06:28.572Z,69.00
2024-02-19T14:08:55.467Z,68.90
2024-02-19T14:11:22.692Z,69.00
2024-02-19T14:13:57.724Z,68.90
2024-02-19T14:16:28.928Z,68.80
2024-02-19T14:18:56.095Z,68.80
2024-02-19T14:21:23.140Z,68.60
2024-02-19T14:23:50.586Z,68.70
2024-02-19T14:26:17.446Z,68.70
2024-02-19T14:28:44.368Z,68.80
2024-02-19T14:31:11.345Z,68.70
2024-02-19T14:33:38.107Z,68.80
2024-02-19T14:36:05.639Z,68.70
2024-02-19T14:38:32.626Z,68.70
2024-02-19T14:40:59.537Z,68.60
2024-02-19T14:43:26.465Z,68.60
2024-02-19T14:45:54.428Z,68.50
2024-02-19T14:48:21.378Z,68.60
2024-02-19T14:50:48.386Z,68.60
2024-02-19T14:53:15.215Z,68.50
2024-02-19T14:55:42.053Z,68.50
2024-02-19T14:58:10.492Z,68.50
2024-02-19T15:00:37.508Z,68.40
2024-02-19T15:03:11.175Z,68.30
2024-02-19T15:05:39.103Z,68.30
2024-02-19T15:08:08.391Z,68.40
2024-02-19T15:10:35.673Z,68.20
2024-02-19T15:13:03.738Z,68.20
2024-02-19T15:15:30.611Z,68.10
2024-02-19T15:17:57.807Z,68.10
2024-02-19T15:20:24.943Z,68.10
2024-02-19T15:22:52.136Z,68.20
2024-02-19T15:25:20.078Z,68.20
2024-02-19T15:27:47.865Z,68.20
2024-02-19T15:30:16.253Z,68.20
2024-02-19T15:32:43.021Z,68.20
2024-02-19T15:35:10.171Z,68.20
2024-02-19T15:37:37.186Z,68.20
2024-02-19T15:40:04.336Z,68.10
2024-02-19T15:42:37.685Z,68.00
2024-02-19T15:45:05.415Z,68.10
2024-02-19T15:47:32.216Z,68.10
2024-02-19T15:50:00.535Z,68.10
2024-02-19T15:52:29.194Z,68.20
2024-02-19T15:54:56.341Z,68.20
2024-02-19T15:57:23.166Z,68.20
2024-02-19T15:59:50.140Z,68.20
2024-02-19T16:02:16.970Z,68.30
2024-02-19T16:04:44.043Z,68.20
2024-02-19T16:07:11.302Z,68.20
2024-02-19T16:09:38.264Z,68.20
2024-02-19T16:12:07.329Z,68.20
2024-02-19T16:14:38.334Z,68.20
2024-02-19T16:17:05.681Z,68.20
2024-02-19T16:19:32.534Z,68.10
2024-02-19T16:21:59.413Z,68.10
2024-02-19T16:24:28.950Z,68.20
2024-02-19T16:26:55.850Z,68.10
2024-02-19T16:29:24.336Z,68.10
2024-02-19T16:31:51.167Z,68.10
2024-02-19T16:34:19.161Z,68.10
2024-02-19T16:36:46.076Z,68.10
2024-02-19T16:39:13.068Z,68.10
2024-02-19T16:41:40.031Z,68.10
2024-02-19T16:44:06.771Z,68.10
2024-02-19T16:46:33.780Z,68.10
2024-02-19T16:49:00.713Z,68.10
2024-02-19T16:51:27.760Z,68.10
2024-02-19T16:53:58.121Z,68.10
2024-02-19T16:56:27.153Z,68.10
2024-02-19T16:58:54.033Z,68.10
2024-02-19T17:01:20.954Z,68.10
2024-02-19T17:03:48.116Z,68.10
2024-02-19T17:06:15.070Z,68.10
2024-02-19T17:08:42.320Z,68.10
2024-02-19T17:11:09.404Z,68.10
2024-02-19T17:13:37.741Z,68.10
2024-02-19T17:16:05.376Z,68.10
2024-02-19T17:18:33.049Z,68.00
2024-02-19T17:21:00.130Z,68.10
2024-02-19T17:23:26.928Z,68.10
2024-02-19T17:25:53.826Z,68.10
2024-02-19T17:28:22.753Z,68.10
2024-02-19T17:30:49.610Z,68.10
2024-02-19T17:33:16.493Z,68.10
2024-02-19T17:35:45.594Z,68.10
2024-02-19T17:38:12.939Z,68.10
2024-02-19T17:40:39.778Z,68.10
2024-02-19T17:43:06.717Z,68.20
2024-02-19T17:45:33.453Z,68.10
2024-02-19T17:48:00.545Z,68.20
2024-02-19T17:50:27.507Z,68.20
2024-02-19T17:52:54.254Z,68.20
2024-02-19T17:55:21.317Z,68.20
2024-02-19T17:57:49.209Z,68.20
2024-02-19T18:00:16.931Z,68.20
2024-02-19T18:02:44.497Z,68.30
2024-02-19T18:05:11.398Z,68.40
2024-02-19T18:07:38.280Z,68.40
2024-02-19T18:10:05.669Z,68.40
2024-02-19T18:12:32.676Z,68.30
2024-02-19T18:15:00.043Z,68.40
2024-02-19T18:17:27.724Z,68.40
2024-02-19T18:19:55.563Z,68.40
2024-02-19T18:22:22.997Z,68.50
2024-02-19T18:24:51.675Z,68.50
2024-02-19T18:27:19.230Z,68.40
2024-02-19T18:29:46.223Z,68.40
2024-02-19T18:32:15.605Z,68.40
2024-02-19T18:34:46.466Z,68.50
2024-02-19T18:37:13.323Z,68.50
2024-02-19T18:39:40.082Z,68.50
2024-02-19T18:42:09.477Z,68.50
2024-02-19T18:44:36.426Z,68.40
2024-02-19T18:47:06.061Z,68.50
2024-02-19T18:49:33.682Z,68.40
2024-02-19T18:52:02.349Z,68.40
2024-02-19T18:54:32.046Z,68.40
2024-02-19T18:57:02.412Z,68.30
2024-02-19T18:59:32.463Z,68.40
2024-02-19T19:02:09.652Z,68.40
2024-02-19T19:04:40.317Z,68.40
2024-02-19T19:07:08.757Z,68.40
2024-02-19T19:09:40.872Z,68.40
2024-02-19T19:12:09.561Z,68.40
2024-02-19T19:14:38.639Z,68.40
2024-02-19T19:17:10.543Z,68.40
2024-02-19T19:19:41.542Z,68.40
2024-02-19T19:22:10.749Z,68.40
2024-02-19T19:24:38.914Z,68.40
2024-02-19T19:27:09.752Z,68.50
2024-02-19T19:29:37.717Z,68.40
2024-02-19T19:32:06.333Z,68.40
2024-02-19T19:34:34.424Z,68.40
2024-02-19T19:37:02.527Z,68.40
2024-02-19T19:39:30.253Z,68.40
2024-02-19T19:41:57.976Z,68.40
2024-02-19T19:44:25.505Z,68.40
2024-02-19T19:46:53.078Z,68.40
2024-02-19T19:49:23.126Z,68.40
2024-02-19T19:51:53.630Z,68.50
2024-02-19T19:54:21.612Z,68.50
2024-02-19T19:56:49.293Z,68.50
2024-02-19T19:59:17.148Z,68.50
2024-02-19T20:01:45.436Z,68.50
2024-02-19T20:04:15.513Z,68.60
2024-02-19T20:06:43.203Z,68.60
2024-02-19T20:09:10.185Z,68.60
2024-02-19T20:11:37.121Z,68.60
2024-02-19T20:14:04.298Z,68.60
2024-02-19T20:16:31.184Z,68.60
2024-02-19T20:18:58.468Z,68.60
2024-02-19T20:21:25.677Z,68.60
2024-02-19T20:23:54.564Z,68.70
2024-02-19T20:26:21.498Z,68.60
2024-02-19T20:28:48.392Z,68.60
2024-02-19T20:31:15.520Z,68.60
2024-02-19T20:33:42.533Z,68.70
2024-02-19T20:36:12.157Z,68.70
2024-02-19T20:38:39.849Z,69.30
2024-02-19T20:41:06.841Z,68.70
2024-02-19T20:43:35.086Z,68.70
2024-02-19T20:46:02.243Z,68.70
2024-02-19T20:48:29.243Z,68.70
2024-02-19T20:50:56.190Z,68.70
2024-02-19T20:53:23.006Z,68.70
2024-02-19T20:55:49.942Z,68.70
2024-02-19T20:58:17.547Z,68.70
2024-02-19T21:00:44.580Z,69.30
2024-02-19T21:03:11.518Z,68.80
2024-02-19T21:05:38.460Z,68.70
2024-02-19T21:08:06.346Z,68.80
2024-02-19T21:10:34.632Z,68.70
2024-02-19T21:13:02.183Z,68.80
2024-02-19T21:15:29.617Z,68.80
2024-02-19T21:17:56.642Z,68.80
2024-02-19T21:20:23.720Z,68.80
2024-02-19T21:22:51.971Z,68.80
2024-02-19T21:25:19.307Z,68.80
2024-02-19T21:27:46.467Z,68.80
2024-02-19T21:30:13.829Z,68.90
2024-02-19T21:32:40.923Z,68.90
2024-02-19T21:35:11.109Z,68.80
2024-02-19T21:37:40.165Z,68.80
2024-02-19T21:40:10.185Z,68.90
2024-02-19T21:42:39.130Z,68.90
2024-02-19T21:45:09.952Z,68.90
2024-02-19T21:47:37.904Z,68.90
2024-02-19T21:50:10.676Z,69.00
2024-02-19T21:52:38.617Z,69.00
2024-02-19T21:55:07.728Z,69.00
2024-02-19T21:57:38.655Z,69.00
2024-02-19T22:00:06.931Z,69.00
2024-02-19T22:02:33.946Z,69.00
2024-02-19T22:05:01.028Z,69.00
2024-02-19T22:07:32.177Z,69.00
2024-02-19T22:10:02.505Z,69.00
2024-02-19T22:12:33.410Z,68.90
2024-02-19T22:15:03.716Z,69.00
2024-02-19T22:17:30.655Z,69.00
2024-02-19T22:19:57.817Z,69.00
2024-02-19T22:22:25.145Z,69.10
2024-02-19T22:24:52.275Z,69.10
2024-02-19T22:27:19.327Z,69.10
2024-02-19T22:29:46.223Z,69.10
2024-02-19T22:32:13.197Z,69.10
2024-02-19T22:34:46.685Z,69.10
2024-02-19T22:37:14.922Z,69.10
2024-02-19T22:39:46.007Z,69.10
2024-02-19T22:42:13.504Z,69.20
2024-02-19T22:44:41.674Z,69.10
2024-02-19T22:47:08.683Z,69.10
2024-02-19T22:49:39.038Z,69.10
2024-02-19T22:52:07.283Z,69.20
2024-02-19T22:54:34.788Z,69.20
2024-02-19T22:57:02.445Z,69.20
2024-02-19T22:59:29.428Z,69.20
2024-02-19T23:01:56.530Z,69.20
2024-02-19T23:04:23.738Z,69.20
2024-02-19T23:06:50.788Z,69.20
2024-02-19T23:09:17.849Z,69.20
2024-02-19T23:11:44.724Z,69.20
2024-02-19T23:14:11.684Z,69.20
2024-02-19T23:16:39.467Z,69.80
2024-02-19T23:19:07.017Z,69.20
2024-02-19T23:21:34.759Z,69.20
2024-02-19T23:24:01.658Z,69.30
2024-02-19T23:26:28.587Z,69.30
2024-02-19T23:28:55.458Z,69.30
2024-02-19T23:31:23.622Z,69.30
2024-02-19T23:33:50.969Z,69.30
2024-02-19T23:36:18.090Z,69.30
2024-02-19T23:38:45.780Z,69.30
2024-02-19T23:41:12.831Z,69.30
2024-02-19T23:43:39.868Z,69.30
2024-02-19T23:46:06.944Z,69.40
2024-02-19T23:48:34.247Z,69.40
2024-02-19T23:51:01.300Z,69.40
2024-02-19T23:53:28.345Z,69.40
2024-02-19T23:55:55.798Z,69.50
2024-02-19T23:58:26.143Z,69.50
